Time;durP1;ratioP1;P1;durP2;ratioP2;P2;SDS_P1;SDS_P2;PMS_P1;PMS_P2;Temp;Humidity;BMP_temperature;BMP_pressure;BME280_temperature;BME280_humidity;BME280_pressure;Samples;Min_cycle;Max_cycle;Signal;HPM_P1;HPM_P2
2022/01/12 00:00:42;;;;;;;;;;;;;;;-13.60;87.98;100702.45;1658721;85;20489;-64
2022/01/12 00:03:10;;;;;;;;;;;;;;;-13.60;88.57;100704.25;1644543;86;20127;-63
2022/01/12 00:05:46;;;;;;;;;;;;;;;-13.60;88.55;100700.29;1636343;85;20145;-63
2022/01/12 00:08:13;;;;;;;;;;;;;;;-13.62;88.07;100701.74;1663656;84;20077;-63
2022/01/12 00:10:43;;;;;;;;;;;;;;;-13.61;88.34;100707.86;1644859;86;20135;-63
2022/01/12 00:13:11;;;;;;;;;;;;;;;-13.60;88.69;100704.25;1627728;86;20207;-63
2022/01/12 00:15:40;;;;;;;;;;;;;;;-13.62;88.22;100702.23;1627871;86;20492;-63
2022/01/12 00:18:13;;;;;;;;;;;;;;;-13.67;87.81;100711.86;1611339;87;20101;-63
2022/01/12 00:20:44;;;;;;;;;;;;;;;-13.68;89.15;100704.91;1637957;86;20176;-63
2022/01/12 00:23:13;;;;;;;;;;;;;;;-13.64;89.08;100705.48;1639674;86;20205;-66
2022/01/12 00:25:58;;;;;;;;;;;;;;;-13.69;88.21;100705.39;1648234;86;20233;-67
2022/01/12 00:34:00;;;;;;;;;;;;;;;-13.81;87.81;100702.48;1667058;85;20427;-64
2022/01/12 00:36:35;;;;;;;;;;;;;;;-13.88;88.24;100704.48;1629488;85;20156;-65
2022/01/12 00:39:04;;;;;;;;;;;;;;;-13.89;88.48;100712.89;1657937;85;20198;-65
2022/01/12 00:41:32;;;;;;;;;;;;;;;-13.94;87.73;100710.29;1659733;85;20112;-65
2022/01/12 00:44:07;;;;;;;;;;;;;;;-13.99;88.20;100716.44;1645688;85;20117;-64
2022/01/12 00:46:34;;;;;;;;;;;;;;;-14.03;88.40;100710.09;1652826;85;20100;-64
2022/01/12 00:49:03;;;;;;;;;;;;;;;-14.03;88.24;100718.02;1663909;85;20473;-64
2022/01/12 00:51:40;;;;;;;;;;;;;;;-14.02;88.39;100713.58;1667018;85;20078;-64
2022/01/12 00:54:13;;;;;;;;;;;;;;;-13.95;89.39;100708.13;1640298;85;20104;-64
2022/01/12 00:56:43;;;;;;;;;;;;;;;-13.96;88.64;100712.22;1670161;85;21189;-64
2022/01/12 00:59:11;;;;;;;;;;;;;;;-14.00;88.43;100713.45;1670916;84;20121;-64
2022/01/12 01:01:45;;;;;;;;;;;;;;;-13.96;89.01;100720.98;1643823;85;20227;-64
2022/01/12 01:04:12;;;;;;;;;;;;;;;-13.90;88.96;100715.18;1668983;84;20189;-64
2022/01/12 01:06:44;;;;;;;;;;;;;;;-13.90;88.40;100713.02;1668227;85;20113;-64
2022/01/12 01:09:14;;;;;;;;;;;;;;;-13.90;88.76;100709.06;1651580;85;20620;-64
2022/01/12 01:11:48;;;;;;;;;;;;;;;-13.94;88.41;100707.65;1668086;85;20467;-64
2022/01/12 01:14:23;;;;;;;;;;;;;;;-13.95;88.25;100712.09;1659088;85;20476;-64
2022/01/12 01:16:54;;;;;;;;;;;;;;;-13.95;89.00;100711.25;1663529;85;20501;-63
2022/01/12 01:25:30;;;;;;;;;;;;;;;-14.03;87.85;100715.86;1659789;85;20096;-64
2022/01/12 01:27:39;;;;;;;;;;;;;;;-14.06;88.24;100711.68;1652408;86;20503;-63
2022/01/12 01:30:08;;;;;;;;;;;;;;;-14.08;88.19;100712.29;1666705;85;20193;-63
2022/01/12 01:32:40;;;;;;;;;;;;;;;-14.00;88.89;100716.09;1674163;84;20161;-63
2022/01/12 01:35:09;;;;;;;;;;;;;;;-13.97;88.59;100715.83;1681907;84;21106;-64
2022/01/12 01:37:41;;;;;;;;;;;;;;;-13.95;88.43;100718.69;1659767;85;20515;-64
2022/01/12 01:40:12;;;;;;;;;;;;;;;-13.92;88.65;100715.80;1666784;85;20117;-64
2022/01/12 01:43:06;;;;;;;;;;;;;;;-13.88;88.75;100721.16;1667943;85;20137;-64
2022/01/12 01:53:36;;;;;;;;;;;;;;;-13.83;88.65;100720.74;1640075;86;20157;-63
2022/01/12 01:56:06;;;;;;;;;;;;;;;-13.75;89.36;100727.52;1676149;85;22179;-64
2022/01/12 01:58:38;;;;;;;;;;;;;;;-13.69;89.53;100730.48;1671458;85;20206;-64
2022/01/12 02:01:09;;;;;;;;;;;;;;;-13.65;88.92;100728.89;1661540;85;21204;-63
2022/01/12 02:03:43;;;;;;;;;;;;;;;-13.62;89.20;100726.83;1660499;85;20154;-64
2022/01/12 02:06:11;;;;;;;;;;;;;;;-13.55;89.28;100722.69;1638408;86;20088;-64
2022/01/12 02:08:45;;;;;;;;;;;;;;;-13.56;88.83;100719.70;1627882;88;20470;-64
2022/01/12 02:11:15;;;;;;;;;;;;;;;-13.53;89.22;100722.56;1656008;85;20096;-64
2022/01/12 02:13:42;;;;;;;;;;;;;;;-13.48;89.45;100717.23;1675090;84;21182;-64
2022/01/12 02:16:12;;;;;;;;;;;;;;;-13.45;89.01;100718.29;1669743;84;20144;-63
2022/01/12 02:19:08;;;;;;;;;;;;;;;-13.44;89.03;100725.25;1652131;85;20463;-63
2022/01/12 02:40:37;;;;;;;;;;;;;;;-13.32;88.42;100714.58;1662546;85;21196;-63
2022/01/12 02:53:54;;;;;;;;;;;;;;;-13.31;88.49;100705.20;1639826;85;20108;-65
2022/01/12 02:56:24;;;;;;;;;;;;;;;-13.39;88.05;100710.31;1667547;85;20117;-65
2022/01/12 02:58:51;;;;;;;;;;;;;;;-13.47;88.67;100710.14;1679921;84;20189;-65
2022/01/12 03:03:57;;;;;;;;;;;;;;;-13.62;87.92;100704.38;1670362;84;20162;-65
2022/01/12 03:06:32;;;;;;;;;;;;;;;-13.66;88.66;100705.62;1680525;84;21153;-64
2022/01/12 03:09:00;;;;;;;;;;;;;;;-13.66;89.02;100707.42;1645667;85;20092;-64
2022/01/12 03:11:32;;;;;;;;;;;;;;;-13.71;88.32;100695.45;1647203;85;20519;-65
2022/01/12 03:14:00;;;;;;;;;;;;;;;-13.71;88.73;100707.81;1659148;85;20100;-64
2022/01/12 03:16:29;;;;;;;;;;;;;;;-13.69;89.15;100706.72;1627301;87;20160;-64
2022/01/12 03:19:07;;;;;;;;;;;;;;;-13.70;88.35;100698.92;1655360;84;20089;-64
2022/01/12 03:21:35;;;;;;;;;;;;;;;-13.68;88.62;100698.31;1646339;85;20410;-63
2022/01/12 03:24:07;;;;;;;;;;;;;;;-13.65;88.84;100701.17;1672017;84;20519;-64
2022/01/12 03:26:36;;;;;;;;;;;;;;;-13.65;88.31;100691.45;1658833;84;20145;-63
2022/01/12 03:29:04;;;;;;;;;;;;;;;-13.70;87.59;100697.61;1646508;84;20130;-64
2022/01/12 03:31:40;;;;;;;;;;;;;;;-13.76;88.45;100695.00;1665292;84;22308;-64
2022/01/12 03:39:14;;;;;;;;;;;;;;;-13.82;87.94;100686.78;1676131;84;20483;-64
2022/01/12 03:41:43;;;;;;;;;;;;;;;-13.77;88.03;100692.50;1676143;84;20416;-64
2022/01/12 03:44:17;;;;;;;;;;;;;;;-13.78;87.83;100694.30;1677887;84;21171;-63
2022/01/12 03:46:46;;;;;;;;;;;;;;;-13.76;87.85;100692.85;1660906;85;20133;-63
2022/01/12 03:49:13;;;;;;;;;;;;;;;-13.70;88.03;100690.52;1667117;85;20422;-63
2022/01/12 03:51:42;;;;;;;;;;;;;;;-13.67;87.75;100690.73;1672232;84;20133;-63
2022/01/12 03:54:09;;;;;;;;;;;;;;;-13.67;87.58;100692.06;1672714;84;20150;-63
2022/01/12 03:56:38;;;;;;;;;;;;;;;-13.66;87.87;100691.58;1673176;84;21176;-63
2022/01/12 03:59:08;;;;;;;;;;;;;;;-13.67;87.43;100684.63;1680177;84;20128;-63
2022/01/12 04:01:37;;;;;;;;;;;;;;;-13.65;87.72;100691.93;1665303;84;20117;-63
2022/01/12 04:04:19;;;;;;;;;;;;;;;-13.64;87.70;100696.23;1665107;85;20123;-63
2022/01/12 04:09:24;;;;;;;;;;;;;;;-13.70;87.26;100694.97;1670248;84;21055;-63
2022/01/12 04:11:59;;;;;;;;;;;;;;;-13.72;88.25;100693.77;1633464;85;20101;-64
2022/01/12 04:14:24;;;;;;;;;;;;;;;-13.74;87.83;100691.75;1625909;86;20105;-65
2022/01/12 04:16:56;;;;;;;;;;;;;;;-13.71;88.17;100695.94;1673881;85;20100;-65
2022/01/12 04:19:40;;;;;;;;;;;;;;;-13.68;88.12;100695.67;1662483;85;20451;-64
2022/01/12 04:21:54;;;;;;;;;;;;;;;-13.74;87.33;100699.67;1657393;85;21861;-64
2022/01/12 04:24:22;;;;;;;;;;;;;;;-13.79;86.93;100691.80;1657073;85;20241;-64
2022/01/12 04:27:06;;;;;;;;;;;;;;;-13.85;88.12;100687.04;1658044;85;20169;-65
2022/01/12 04:29:25;;;;;;;;;;;;;;;-13.88;87.79;100689.48;1659664;85;20193;-65
2022/01/12 04:31:53;;;;;;;;;;;;;;;-13.92;87.27;100688.56;1632773;86;20292;-64
2022/01/12 04:34:26;;;;;;;;;;;;;;;-13.99;87.59;100686.09;1658257;85;20877;-64
2022/01/12 04:36:54;;;;;;;;;;;;;;;-14.05;87.29;100688.77;1663553;85;20503;-65
2022/01/12 04:39:23;;;;;;;;;;;;;;;-14.13;86.83;100685.94;1689065;84;20122;-67
2022/01/12 04:41:51;;;;;;;;;;;;;;;-14.19;87.37;100688.61;1672504;84;20088;-65
2022/01/12 04:44:21;;;;;;;;;;;;;;;-14.21;87.60;100686.58;1680809;84;20133;-65
2022/01/12 04:47:04;;;;;;;;;;;;;;;-14.24;87.21;100689.48;1664634;85;21958;-65
2022/01/12 04:50:06;;;;;;;;;;;;;;;-14.28;87.24;100688.06;1626699;84;20099;-63
2022/01/12 04:51:58;;;;;;;;;;;;;;;-14.27;87.69;100683.14;1642681;85;20149;-63
2022/01/12 04:54:26;;;;;;;;;;;;;;;-14.24;87.58;100684.20;1671968;85;20186;-63
2022/01/12 04:56:55;;;;;;;;;;;;;;;-14.19;87.69;100694.37;1654207;85;20172;-63
2022/01/12 04:59:27;;;;;;;;;;;;;;;-14.15;87.78;100699.26;1655931;86;21142;-63
2022/01/12 05:01:57;;;;;;;;;;;;;;;-14.13;87.65;100693.85;1656239;86;20420;-63
2022/01/12 05:07:26;;;;;;;;;;;;;;;-14.00;87.63;100685.25;1630761;86;20431;-63
2022/01/12 05:12:51;;;;;;;;;;;;;;;-13.90;87.65;100679.55;1675082;84;20475;-62
2022/01/12 05:15:20;;;;;;;;;;;;;;;-13.87;87.80;100676.64;1636369;86;20468;-62
2022/01/12 05:17:46;;;;;;;;;;;;;;;-13.86;87.31;100686.72;1669750;85;20120;-65
2022/01/12 05:20:15;;;;;;;;;;;;;;;-13.92;87.17;100680.64;1646403;85;20088;-64
2022/01/12 05:22:46;;;;;;;;;;;;;;;-13.92;87.85;100688.08;1640514;85;20150;-63
2022/01/12 05:25:34;;;;;;;;;;;;;;;-13.95;87.45;100693.62;1653436;85;21097;-64
2022/01/12 05:27:56;;;;;;;;;;;;;;;-13.99;87.22;100691.37;1672258;85;20121;-64
2022/01/12 05:30:24;;;;;;;;;;;;;;;-14.05;87.64;100697.52;1664339;85;20582;-63
2022/01/12 05:32:54;;;;;;;;;;;;;;;-14.06;87.44;100701.61;1671887;85;20100;-63
2022/01/12 05:35:24;;;;;;;;;;;;;;;-14.08;87.21;100701.73;1668890;85;20129;-63
2022/01/12 05:37:52;;;;;;;;;;;;;;;-14.07;87.84;100693.34;1668256;85;21087;-63
2022/01/12 05:40:23;;;;;;;;;;;;;;;-14.06;87.57;100697.64;1637893;86;20149;-63
2022/01/12 05:42:59;;;;;;;;;;;;;;;-14.13;87.13;100686.77;1659113;85;20123;-63
2022/01/12 05:45:24;;;;;;;;;;;;;;;-14.16;87.42;100698.91;1660131;86;20121;-63
2022/01/12 05:50:23;;;;;;;;;;;;;;;-14.09;88.11;100701.38;1652572;86;21158;-62
2022/01/12 05:52:57;;;;;;;;;;;;;;;-14.03;87.92;100700.86;1658515;85;20126;-64
2022/01/12 05:55:27;;;;;;;;;;;;;;;-14.00;88.10;100697.61;1662099;85;20120;-63
2022/01/12 05:57:56;;;;;;;;;;;;;;;-14.03;87.38;100700.03;1671108;84;20129;-63
2022/01/12 06:00:32;;;;;;;;;;;;;;;-14.10;87.02;100705.47;1652932;84;20092;-63
2022/01/12 06:03:11;;;;;;;;;;;;;;;-14.14;87.21;100706.20;1686233;84;21146;-63
2022/01/12 06:05:31;;;;;;;;;;;;;;;-14.15;87.12;100703.22;1661361;84;21645;-63
2022/01/12 06:08:09;;;;;;;;;;;;;;;-14.19;86.71;100711.52;1665821;84;20487;-63
2022/01/12 06:10:36;;;;;;;;;;;;;;;-14.22;86.86;100710.45;1646026;86;20618;-63
2022/01/12 06:13:03;;;;;;;;;;;;;;;-14.25;86.76;100707.59;1606859;87;20448;-64
2022/01/12 06:15:38;;;;;;;;;;;;;;;-14.25;86.09;100716.83;1608263;89;20155;-63
2022/01/12 06:18:11;;;;;;;;;;;;;;;-14.21;87.71;100712.13;1585991;89;20181;-67
2022/01/12 06:20:39;;;;;;;;;;;;;;;-14.19;87.62;100720.27;1638946;86;20633;-68
2022/01/12 06:23:17;;;;;;;;;;;;;;;-14.20;86.73;100730.95;1662068;86;20219;-67
2022/01/12 06:25:51;;;;;;;;;;;;;;;-14.16;86.87;100728.41;1645272;86;20106;-67
2022/01/12 06:28:35;;;;;;;;;;;;;;;-14.09;86.95;100727.77;1652112;86;21845;-67
2022/01/12 06:31:17;;;;;;;;;;;;;;;-14.06;85.46;100727.52;1640413;86;20425;-63
2022/01/12 06:33:44;;;;;;;;;;;;;;;-14.05;85.18;100726.55;1647677;86;20162;-66
2022/01/12 06:36:13;;;;;;;;;;;;;;;-14.03;84.76;100723.78;1660409;86;20150;-67
2022/01/12 06:38:45;;;;;;;;;;;;;;;-13.97;84.90;100729.02;1655569;86;20142;-68
2022/01/12 06:41:18;;;;;;;;;;;;;;;-13.91;83.85;100736.42;1656081;86;21171;-65
2022/01/12 06:43:45;;;;;;;;;;;;;;;-13.93;83.40;100731.76;1655440;86;20117;-68
2022/01/12 06:46:25;;;;;;;;;;;;;;;-13.94;83.29;100724.80;1655752;86;20137;-67
2022/01/12 06:48:50;;;;;;;;;;;;;;;-13.94;83.58;100731.41;1633095;86;20143;-69
2022/01/12 06:51:19;;;;;;;;;;;;;;;-13.95;82.91;100733.20;1631956;85;20488;-71
2022/01/12 06:53:46;;;;;;;;;;;;;;;-13.92;83.15;100738.23;1636293;86;21206;-63
2022/01/12 06:56:17;;;;;;;;;;;;;;;-13.81;83.42;100734.16;1629358;86;20169;-63
2022/01/12 06:58:48;;;;;;;;;;;;;;;-13.71;82.15;100732.41;1635573;86;20193;-73
2022/01/12 07:01:15;;;;;;;;;;;;;;;-13.63;81.99;100723.84;1643835;86;20204;-64
2022/01/12 07:03:48;;;;;;;;;;;;;;;-13.48;82.44;100724.32;1643241;86;20555;-65
2022/01/12 07:06:22;;;;;;;;;;;;;;;-13.12;83.09;100728.14;1629999;85;20514;-65
2022/01/12 07:08:51;;;;;;;;;;;;;;;-12.55;82.42;100724.74;1645762;86;20115;-66
2022/01/12 07:11:22;;;;;;;;;;;;;;;-12.00;80.82;100727.62;1643760;86;20171;-69
2022/01/12 07:13:51;;;;;;;;;;;;;;;-11.79;78.00;100728.27;1639971;86;20476;-72
2022/01/12 07:16:26;;;;;;;;;;;;;;;-11.72;78.22;100731.98;1642971;86;20132;-68
2022/01/12 07:18:59;;;;;;;;;;;;;;;-11.63;77.05;100722.34;1634229;86;20203;-62
2022/01/12 07:21:30;;;;;;;;;;;;;;;-11.58;76.68;100730.70;1620803;86;20292;-65
2022/01/12 07:23:57;;;;;;;;;;;;;;;-11.51;77.20;100733.57;1631179;85;20142;-61
2022/01/12 07:26:26;;;;;;;;;;;;;;;-11.43;75.93;100733.69;1637955;86;20157;-69
2022/01/12 07:28:54;;;;;;;;;;;;;;;-11.39;73.91;100744.34;1647252;86;20146;-69
2022/01/12 07:31:21;;;;;;;;;;;;;;;-11.38;73.73;100738.89;1639281;86;21104;-69
2022/01/12 07:33:50;;;;;;;;;;;;;;;-11.40;72.63;100741.34;1632549;86;20176;-72
2022/01/12 07:36:25;;;;;;;;;;;;;;;-11.25;72.92;100745.69;1627407;86;33286;-62
2022/01/12 07:38:54;;;;;;;;;;;;;;;-10.98;72.68;100744.86;1633436;85;20637;-62
2022/01/12 07:41:20;;;;;;;;;;;;;;;-10.87;70.54;100748.13;1651312;86;20441;-62
2022/01/12 07:43:46;;;;;;;;;;;;;;;-10.85;69.54;100745.31;1634265;86;21163;-62
2022/01/12 07:46:19;;;;;;;;;;;;;;;-10.87;70.25;100748.13;1649180;86;20135;-63
2022/01/12 07:48:43;;;;;;;;;;;;;;;-10.78;69.40;100742.41;1652681;86;20118;-63
2022/01/12 07:51:09;;;;;;;;;;;;;;;-10.65;70.02;100743.38;1645920;86;22214;-63
2022/01/12 07:53:41;;;;;;;;;;;;;;;-10.45;68.12;100740.94;1662152;86;20142;-63
2022/01/12 07:56:12;;;;;;;;;;;;;;;-10.20;68.30;100741.48;1658949;85;21128;-64
2022/01/12 07:58:38;;;;;;;;;;;;;;;-9.84;67.23;100750.22;1656499;85;20511;-66
2022/01/12 08:01:07;;;;;;;;;;;;;;;-9.65;67.04;100746.50;1654015;85;20116;-67
2022/01/12 08:03:37;;;;;;;;;;;;;;;-9.35;66.23;100745.19;1653378;86;20456;-67
2022/01/12 08:06:14;;;;;;;;;;;;;;;-9.14;66.43;100739.45;1641787;86;20128;-66
2022/01/12 08:08:46;;;;;;;;;;;;;;;-9.01;62.90;100727.38;1654187;86;21802;-65
2022/01/12 08:11:18;;;;;;;;;;;;;;;-9.12;62.91;100738.80;1654775;85;20461;-65
2022/01/12 08:13:45;;;;;;;;;;;;;;;-8.95;62.68;100739.70;1659161;85;20172;-65
2022/01/12 08:16:12;;;;;;;;;;;;;;;-8.94;62.54;100745.36;1660232;85;20185;-65
2022/01/12 08:18:39;;;;;;;;;;;;;;;-9.05;60.34;100743.81;1661590;86;20166;-65
2022/01/12 08:21:06;;;;;;;;;;;;;;;-9.30;61.41;100749.55;1661020;85;21180;-65
2022/01/12 08:23:36;;;;;;;;;;;;;;;-9.36;62.69;100748.34;1662182;85;20159;-65
2022/01/12 08:26:08;;;;;;;;;;;;;;;-9.32;61.30;100749.36;1639403;86;20481;-65
2022/01/12 08:28:44;;;;;;;;;;;;;;;-9.44;61.46;100746.97;1661904;85;20105;-64
2022/01/12 08:31:07;;;;;;;;;;;;;;;-9.23;63.18;100742.56;1668067;85;20129;-64
2022/01/12 08:33:35;;;;;;;;;;;;;;;-8.83;62.23;100742.41;1675525;84;21170;-65
2022/01/12 08:36:05;;;;;;;;;;;;;;;-8.71;61.06;100746.44;1664374;85;20220;-65
2022/01/12 08:38:34;;;;;;;;;;;;;;;-8.75;61.22;100739.27;1656104;85;20746;-65
2022/01/12 08:41:06;;;;;;;;;;;;;;;-8.74;60.16;100739.61;1660590;85;20175;-65
2022/01/12 08:43:44;;;;;;;;;;;;;;;-9.10;59.97;100743.46;1654884;85;20104;-65
2022/01/12 08:46:10;;;;;;;;;;;;;;;-9.56;61.84;100749.55;1635708;86;23325;-65
2022/01/12 08:48:38;;;;;;;;;;;;;;;-9.80;62.36;100746.23;1654215;86;20135;-65
2022/01/12 08:51:06;;;;;;;;;;;;;;;-9.88;61.08;100743.54;1628088;87;20124;-64
2022/01/12 08:53:40;;;;;;;;;;;;;;;-9.82;62.44;100740.76;1627401;86;20174;-64
2022/01/12 08:56:09;;;;;;;;;;;;;;;-9.75;62.22;100724.50;1658804;86;20157;-64
2022/01/12 08:58:45;;;;;;;;;;;;;;;-9.72;62.11;100735.66;1662169;85;21894;-65
2022/01/12 09:01:12;;;;;;;;;;;;;;;-9.62;62.63;100736.05;1665530;84;20464;-65
2022/01/12 09:03:44;;;;;;;;;;;;;;;-9.51;62.86;100732.64;1682297;84;20100;-64
2022/01/12 09:06:08;;;;;;;;;;;;;;;-9.40;62.91;100732.37;1670802;84;20117;-64
2022/01/12 09:08:45;;;;;;;;;;;;;;;-9.25;62.83;100727.79;1655452;86;20142;-64
2022/01/12 09:11:18;;;;;;;;;;;;;;;-9.17;62.09;100723.31;1660588;84;21653;-63
2022/01/12 09:13:59;;;;;;;;;;;;;;;-8.85;61.62;100716.45;1661272;84;20468;-64
2022/01/12 09:16:14;;;;;;;;;;;;;;;-8.51;62.36;100719.00;1656234;84;20247;-65
2022/01/12 09:18:48;;;;;;;;;;;;;;;-8.18;60.98;100714.02;1620457;86;20465;-64
2022/01/12 09:21:19;;;;;;;;;;;;;;;-8.03;59.95;100711.49;1641195;86;20143;-65
2022/01/12 09:23:45;;;;;;;;;;;;;;;-7.93;59.83;100716.16;1654974;85;21236;-64
2022/01/12 09:26:14;;;;;;;;;;;;;;;-8.16;56.42;100714.69;1661000;85;21590;-67
2022/01/12 09:28:45;;;;;;;;;;;;;;;-8.38;57.84;100710.04;1660100;85;20565;-64
2022/01/12 09:31:16;;;;;;;;;;;;;;;-8.26;58.64;100706.02;1660694;85;20132;-64
2022/01/12 09:33:49;;;;;;;;;;;;;;;-8.07;59.14;100703.00;1667189;85;20098;-64
2022/01/12 09:36:21;;;;;;;;;;;;;;;-8.02;58.01;100706.00;1657116;85;21801;-64
2022/01/12 09:38:48;;;;;;;;;;;;;;;-8.04;57.02;100704.50;1651082;86;21735;-64
2022/01/12 09:41:18;;;;;;;;;;;;;;;-8.36;56.50;100700.89;1647951;86;20194;-64
2022/01/12 09:43:52;;;;;;;;;;;;;;;-8.68;57.26;100696.87;1662069;86;20137;-64
2022/01/12 09:46:22;;;;;;;;;;;;;;;-8.93;57.81;100703.95;1664715;85;20120;-65
2022/01/12 09:48:59;;;;;;;;;;;;;;;-9.23;59.79;100700.51;1662458;85;21151;-65
2022/01/12 09:51:25;;;;;;;;;;;;;;;-9.15;59.75;100701.37;1634181;86;20452;-65
2022/01/12 09:53:59;;;;;;;;;;;;;;;-9.05;59.45;100704.74;1663683;85;20092;-65
2022/01/12 09:56:27;;;;;;;;;;;;;;;-8.54;60.20;100701.52;1637306;86;20467;-66
2022/01/12 09:58:59;;;;;;;;;;;;;;;-8.27;58.85;100703.02;1657112;85;20110;-66
2022/01/12 10:01:34;;;;;;;;;;;;;;;-8.20;57.34;100705.36;1665592;84;21177;-65
2022/01/12 10:04:08;;;;;;;;;;;;;;;-8.15;57.62;100708.36;1641659;86;20449;-65
2022/01/12 10:06:41;;;;;;;;;;;;;;;-8.09;57.62;100705.03;1634691;85;20176;-65
2022/01/12 10:09:15;;;;;;;;;;;;;;;-7.94;55.82;100697.66;1659617;86;20089;-65
2022/01/12 10:11:54;;;;;;;;;;;;;;;-7.68;56.13;100700.47;1645107;85;20099;-65
2022/01/12 10:14:43;;;;;;;;;;;;;;;-7.22;56.53;100693.15;1617112;86;20645;-65
2022/01/12 10:17:14;;;;;;;;;;;;;;;-6.76;54.40;100696.25;1637028;86;20294;-64
2022/01/12 10:19:42;;;;;;;;;;;;;;;-6.56;53.18;100690.45;1616969;86;20140;-65
2022/01/12 10:22:11;;;;;;;;;;;;;;;-6.51;52.41;100690.76;1646703;84;20125;-65
2022/01/12 10:24:56;;;;;;;;;;;;;;;-6.59;52.63;100697.48;1661879;85;20177;-65
2022/01/12 10:27:17;;;;;;;;;;;;;;;-6.55;52.87;100686.28;1663993;84;23312;-65
2022/01/12 10:29:49;;;;;;;;;;;;;;;-6.56;53.40;100695.80;1640141;86;20466;-65
2022/01/12 10:32:19;;;;;;;;;;;;;;;-6.78;52.27;100688.91;1631291;86;20185;-64
2022/01/12 10:34:48;;;;;;;;;;;;;;;-6.92;51.99;100694.99;1645991;86;20106;-65
2022/01/12 10:37:26;;;;;;;;;;;;;;;-6.92;52.89;100693.66;1634283;85;20160;-65
2022/01/12 10:39:51;;;;;;;;;;;;;;;-6.80;52.86;100696.77;1642493;86;21117;-65
2022/01/12 10:42:30;;;;;;;;;;;;;;;-6.76;51.83;100694.91;1629494;86;20240;-65
2022/01/12 10:45:02;;;;;;;;;;;;;;;-6.65;53.13;100692.34;1648078;86;20470;-66
2022/01/12 10:47:32;;;;;;;;;;;;;;;-6.26;51.79;100698.91;1661181;85;20151;-65
2022/01/12 10:50:10;;;;;;;;;;;;;;;-5.96;51.31;100686.97;1651962;85;20156;-65
2022/01/12 10:52:49;;;;;;;;;;;;;;;-5.70;50.31;100679.31;1659332;85;21127;-65
2022/01/12 10:55:17;;;;;;;;;;;;;;;-5.27;50.57;100672.84;1642141;85;20120;-66
2022/01/12 10:57:54;;;;;;;;;;;;;;;-5.03;48.15;100675.19;1635609;86;20148;-66
2022/01/12 11:00:30;;;;;;;;;;;;;;;-5.09;48.66;100667.39;1645461;86;20118;-66
2022/01/12 11:03:03;;;;;;;;;;;;;;;-5.12;48.82;100666.42;1637369;86;20142;-67
2022/01/12 11:05:32;;;;;;;;;;;;;;;-4.94;46.86;100670.05;1652234;85;21871;-66
2022/01/12 11:08:01;;;;;;;;;;;;;;;-5.14;47.44;100673.81;1648961;85;20090;-67
2022/01/12 11:10:29;;;;;;;;;;;;;;;-5.42;48.03;100668.82;1633220;86;20191;-67
2022/01/12 11:13:11;;;;;;;;;;;;;;;-5.83;48.25;100653.22;1638814;86;20126;-67
2022/01/12 11:15:27;;;;;;;;;;;;;;;-6.30;48.83;100665.53;1642696;85;20205;-67
2022/01/12 11:17:55;;;;;;;;;;;;;;;-6.91;50.94;100657.95;1644618;85;20691;-67
2022/01/12 11:20:32;;;;;;;;;;;;;;;-7.61;50.76;100661.13;1640164;86;20196;-67
2022/01/12 11:23:16;;;;;;;;;;;;;;;-8.03;52.24;100653.70;1638461;87;20202;-67
2022/01/12 11:25:45;;;;;;;;;;;;;;;-8.23;54.04;100663.56;1618046;87;20133;-67
2022/01/12 11:28:21;;;;;;;;;;;;;;;-8.12;53.83;100658.73;1645322;86;20159;-67
2022/01/12 11:30:52;;;;;;;;;;;;;;;-7.86;54.05;100653.67;1639825;86;21177;-67
2022/01/12 11:33:33;;;;;;;;;;;;;;;-7.43;53.93;100650.53;1647524;86;20124;-67
2022/01/12 11:36:24;;;;;;;;;;;;;;;-7.13;52.37;100658.75;1621793;88;20201;-67
2022/01/12 11:39:03;;;;;;;;;;;;;;;-7.07;50.73;100650.05;1641840;86;21041;-66
2022/01/12 11:41:31;;;;;;;;;;;;;;;-6.68;51.97;100645.45;1642203;86;20183;-67
2022/01/12 11:44:12;;;;;;;;;;;;;;;-6.10;49.66;100641.81;1636715;86;22080;-67
2022/01/12 11:46:52;;;;;;;;;;;;;;;-6.00;49.11;100634.37;1636165;87;20103;-67
2022/01/12 11:49:44;;;;;;;;;;;;;;;-5.85;48.88;100632.52;1636381;87;20313;-67
2022/01/12 11:52:04;;;;;;;;;;;;;;;-5.97;48.27;100635.85;1626827;87;20167;-67
2022/01/12 11:54:36;;;;;;;;;;;;;;;-5.77;48.19;100635.58;1640345;87;20184;-67
2022/01/12 11:57:11;;;;;;;;;;;;;;;-5.68;48.28;100640.67;1635525;86;21117;-68
2022/01/12 11:59:58;;;;;;;;;;;;;;;-5.29;48.35;100640.06;1638766;86;20319;-67
2022/01/12 12:02:29;;;;;;;;;;;;;;;-5.04;47.65;100642.73;1643811;86;20115;-67
2022/01/12 12:05:01;;;;;;;;;;;;;;;-5.01;46.90;100641.84;1629509;85;20231;-68
2022/01/12 12:07:34;;;;;;;;;;;;;;;-5.06;45.94;100636.22;1652843;85;20144;-68
2022/01/12 12:10:04;;;;;;;;;;;;;;;-5.29;46.04;100628.86;1663114;85;21082;-67
2022/01/12 12:12:34;;;;;;;;;;;;;;;-5.39;46.01;100628.31;1663183;85;20461;-68
2022/01/12 12:15:06;;;;;;;;;;;;;;;-5.27;49.04;100633.52;1671475;85;20122;-67
2022/01/12 12:17:35;;;;;;;;;;;;;;;-5.01;46.95;100631.13;1656513;85;20208;-67
2022/01/12 12:20:05;;;;;;;;;;;;;;;-4.82;46.08;100628.88;1639095;86;20475;-68
2022/01/12 12:22:37;;;;;;;;;;;;;;;-4.90;46.76;100621.78;1661338;86;21160;-66
2022/01/12 12:25:21;;;;;;;;;;;;;;;-5.01;46.14;100622.27;1665297;85;20173;-67
2022/01/12 12:27:39;;;;;;;;;;;;;;;-4.90;45.88;100617.77;1660285;85;20169;-67
2022/01/12 12:30:23;;;;;;;;;;;;;;;-4.95;46.06;100612.14;1661961;85;20236;-68
2022/01/12 12:32:47;;;;;;;;;;;;;;;-5.20;46.19;100612.18;1668461;85;20185;-68
2022/01/12 12:35:24;;;;;;;;;;;;;;;-5.31;45.76;100616.16;1667897;85;21146;-67
2022/01/12 12:38:03;;;;;;;;;;;;;;;-5.33;48.36;100620.36;1637126;85;20172;-68
2022/01/12 12:40:39;;;;;;;;;;;;;;;-5.00;46.89;100612.71;1634864;85;20154;-68
2022/01/12 12:43:12;;;;;;;;;;;;;;;-4.94;44.95;100615.66;1676311;85;20188;-68
2022/01/12 12:45:41;;;;;;;;;;;;;;;-5.33;44.85;100612.34;1661571;85;20198;-68
2022/01/12 12:48:13;;;;;;;;;;;;;;;-5.73;45.80;100610.97;1666909;85;21119;-68
2022/01/12 12:50:50;;;;;;;;;;;;;;;-6.12;46.79;100621.95;1640995;86;20121;-67
2022/01/12 12:53:11;;;;;;;;;;;;;;;-6.14;47.12;100629.82;1650844;86;20178;-67
2022/01/12 12:55:40;;;;;;;;;;;;;;;-6.06;47.86;100637.77;1676465;84;20602;-67
2022/01/12 12:58:06;;;;;;;;;;;;;;;-6.06;47.71;100640.44;1663880;85;20524;-68
2022/01/12 13:00:37;;;;;;;;;;;;;;;-6.05;47.14;100638.92;1660118;85;21184;-67
2022/01/12 13:03:05;;;;;;;;;;;;;;;-6.20;48.76;100635.89;1643857;85;20130;-68
2022/01/12 13:05:36;;;;;;;;;;;;;;;-6.30;48.57;100645.48;1633245;85;20149;-68
2022/01/12 13:08:08;;;;;;;;;;;;;;;-6.15;47.70;100645.53;1647798;86;20147;-68
2022/01/12 13:10:34;;;;;;;;;;;;;;;-6.05;49.01;100630.91;1647307;85;20518;-68
2022/01/12 13:13:08;;;;;;;;;;;;;;;-6.04;48.06;100643.77;1652235;84;20236;-68
2022/01/12 13:15:40;;;;;;;;;;;;;;;-6.04;47.27;100643.77;1669027;84;20181;-68
2022/01/12 13:18:24;;;;;;;;;;;;;;;-6.24;47.46;100647.95;1676295;84;20101;-68
2022/01/12 13:21:12;;;;;;;;;;;;;;;-6.41;48.51;100649.95;1674600;84;20170;-68
2022/01/12 13:23:40;;;;;;;;;;;;;;;-6.68;48.14;100642.79;1637587;85;20117;-68
2022/01/12 13:26:13;;;;;;;;;;;;;;;-7.23;49.13;100634.12;1663872;84;21201;-68
2022/01/12 13:28:42;;;;;;;;;;;;;;;-7.84;50.69;100639.68;1679598;84;20165;-68
2022/01/12 13:31:11;;;;;;;;;;;;;;;-8.59;51.01;100639.95;1647576;84;20161;-68
2022/01/12 13:33:43;;;;;;;;;;;;;;;-9.40;53.00;100641.97;1658258;84;20171;-67
2022/01/12 13:36:29;;;;;;;;;;;;;;;-9.92;55.13;100631.09;1651314;85;20206;-68
2022/01/12 13:39:03;;;;;;;;;;;;;;;-10.13;56.38;100636.77;1670116;84;21129;-68
2022/01/12 13:41:28;;;;;;;;;;;;;;;-10.15;56.95;100640.08;1660891;85;20189;-68
2022/01/12 13:44:11;;;;;;;;;;;;;;;-10.22;58.50;100639.06;1665871;84;21168;-67
2022/01/12 13:46:40;;;;;;;;;;;;;;;-10.37;58.13;100639.61;1664576;85;20109;-67
2022/01/12 13:52:01;;;;;;;;;;;;;;;-11.01;59.61;100637.27;1639177;85;20133;-68
2022/01/12 13:54:31;;;;;;;;;;;;;;;-11.34;61.09;100630.77;1666073;85;20141;-67
2022/01/12 13:57:02;;;;;;;;;;;;;;;-11.61;61.99;100626.33;1651202;85;20125;-67
2022/01/12 13:59:33;;;;;;;;;;;;;;;-11.78;65.02;100623.16;1648217;85;20137;-67
2022/01/12 14:01:58;;;;;;;;;;;;;;;-11.90;64.37;100626.97;1674569;85;20481;-67